sensor_id;sensor_type;location;lat;lon;timestamp;P1;durP1;ratioP1;P2;durP2;ratioP2
6412;SDS011;3239;48.714;9.472;2022-12-24T00:00:28;3.27;;;1.10;;
6412;SDS011;3239;48.714;9.472;2022-12-24T00:02:54;5.87;;;1.17;;
6412;SDS011;3239;48.714;9.472;2022-12-24T00:05:20;2.77;;;1.00;;
6412;SDS011;3239;48.714;9.472;2022-12-24T00:07:46;2.83;;;0.93;;
6412;SDS011;3239;48.714;9.472;2022-12-24T00:10:11;2.73;;;1.10;;
6412;SDS011;3239;48.714;9.472;2022-12-24T00:12:37;7.17;;;1.27;;
6412;SDS011;3239;48.714;9.472;2022-12-24T00:15:03;4.23;;;1.37;;
6412;SDS011;3239;48.714;9.472;2022-12-24T00:17:30;3.37;;;1.00;;
6412;SDS011;3239;48.714;9.472;2022-12-24T00:19:56;3.60;;;0.97;;
6412;SDS011;3239;48.714;9.472;2022-12-24T00:22:21;4.17;;;1.43;;
6412;SDS011;3239;48.714;9.472;2022-12-24T00:24:47;3.70;;;1.33;;
6412;SDS011;3239;48.714;9.472;2022-12-24T00:27:13;5.47;;;1.07;;
6412;SDS011;3239;48.714;9.472;2022-12-24T00:29:39;5.03;;;1.13;;
6412;SDS011;3239;48.714;9.472;2022-12-24T00:32:05;1.70;;;0.70;;
6412;SDS011;3239;48.714;9.472;2022-12-24T00:34:34;4.20;;;0.80;;
6412;SDS011;3239;48.714;9.472;2022-12-24T00:37:01;3.50;;;1.57;;
6412;SDS011;3239;48.714;9.472;2022-12-24T00:39:28;6.80;;;1.20;;
6412;SDS011;3239;48.714;9.472;2022-12-24T00:41:53;3.03;;;0.90;;
6412;SDS011;3239;48.714;9.472;2022-12-24T00:44:19;3.60;;;1.10;;
6412;SDS011;3239;48.714;9.472;2022-12-24T00:46:45;3.50;;;1.00;;
6412;SDS011;3239;48.714;9.472;2022-12-24T00:49:11;8.30;;;1.00;;
6412;SDS011;3239;48.714;9.472;2022-12-24T00:51:37;4.60;;;1.00;;
6412;SDS011;3239;48.714;9.472;2022-12-24T00:54:03;3.97;;;1.40;;
6412;SDS011;3239;48.714;9.472;2022-12-24T00:56:30;3.93;;;0.90;;
6412;SDS011;3239;48.714;9.472;2022-12-24T00:58:56;4.50;;;1.00;;
6412;SDS011;3239;48.714;9.472;2022-12-24T01:01:22;6.37;;;1.23;;
6412;SDS011;3239;48.714;9.472;2022-12-24T01:03:48;3.70;;;1.17;;
6412;SDS011;3239;48.714;9.472;2022-12-24T01:06:16;3.83;;;1.60;;
6412;SDS011;3239;48.714;9.472;2022-12-24T01:08:45;2.77;;;1.23;;
6412;SDS011;3239;48.714;9.472;2022-12-24T01:11:14;5.53;;;1.27;;
6412;SDS011;3239;48.714;9.472;2022-12-24T01:13:40;6.23;;;1.60;;
6412;SDS011;3239;48.714;9.472;2022-12-24T01:16:13;4.80;;;1.23;;
6412;SDS011;3239;48.714;9.472;2022-12-24T01:18:42;4.73;;;1.30;;
6412;SDS011;3239;48.714;9.472;2022-12-24T01:21:08;3.10;;;1.10;;
6412;SDS011;3239;48.714;9.472;2022-12-24T01:23:34;3.20;;;0.80;;
6412;SDS011;3239;48.714;9.472;2022-12-24T01:26:00;4.73;;;1.20;;
6412;SDS011;3239;48.714;9.472;2022-12-24T01:28:27;3.57;;;1.10;;
6412;SDS011;3239;48.714;9.472;2022-12-24T01:30:54;3.73;;;1.20;;
6412;SDS011;3239;48.714;9.472;2022-12-24T01:33:19;2.07;;;0.90;;
6412;SDS011;3239;48.714;9.472;2022-12-24T01:35:45;4.53;;;1.47;;
6412;SDS011;3239;48.714;9.472;2022-12-24T01:38:11;4.50;;;0.80;;
6412;SDS011;3239;48.714;9.472;2022-12-24T01:40:38;3.80;;;1.17;;
6412;SDS011;3239;48.714;9.472;2022-12-24T01:43:25;12.37;;;1.37;;
6412;SDS011;3239;48.714;9.472;2022-12-24T01:45:57;2.60;;;1.00;;
6412;SDS011;3239;48.714;9.472;2022-12-24T01:54:31;3.33;;;1.30;;
6412;SDS011;3239;48.714;9.472;2022-12-24T01:57:05;4.37;;;1.50;;
6412;SDS011;3239;48.714;9.472;2022-12-24T01:59:35;2.90;;;1.30;;
6412;SDS011;3239;48.714;9.472;2022-12-24T02:02:02;4.60;;;1.50;;
6412;SDS011;3239;48.714;9.472;2022-12-24T02:04:36;3.10;;;1.10;;
6412;SDS011;3239;48.714;9.472;2022-12-24T02:07:27;5.70;;;1.30;;
6412;SDS011;3239;48.714;9.472;2022-12-24T02:09:55;4.90;;;1.50;;
6412;SDS011;3239;48.714;9.472;2022-12-24T02:12:22;4.77;;;1.10;;
6412;SDS011;3239;48.714;9.472;2022-12-24T02:14:51;4.17;;;1.23;;
6412;SDS011;3239;48.714;9.472;2022-12-24T02:17:20;7.57;;;1.30;;
6412;SDS011;3239;48.714;9.472;2022-12-24T02:23:08;7.03;;;1.20;;
6412;SDS011;3239;48.714;9.472;2022-12-24T02:31:36;3.80;;;1.10;;
6412;SDS011;3239;48.714;9.472;2022-12-24T02:34:13;5.73;;;1.50;;
6412;SDS011;3239;48.714;9.472;2022-12-24T02:36:57;7.63;;;1.23;;
6412;SDS011;3239;48.714;9.472;2022-12-24T02:39:48;8.00;;;1.30;;
6412;SDS011;3239;48.714;9.472;2022-12-24T02:42:28;4.90;;;1.20;;
6412;SDS011;3239;48.714;9.472;2022-12-24T02:45:06;5.63;;;1.10;;
6412;SDS011;3239;48.714;9.472;2022-12-24T02:47:35;5.17;;;1.77;;
6412;SDS011;3239;48.714;9.472;2022-12-24T02:50:03;8.37;;;1.30;;
6412;SDS011;3239;48.714;9.472;2022-12-24T02:55:10;5.47;;;1.27;;
6412;SDS011;3239;48.714;9.472;2022-12-24T03:06:39;6.20;;;1.10;;
6412;SDS011;3239;48.714;9.472;2022-12-24T03:09:31;10.30;;;1.30;;
6412;SDS011;3239;48.714;9.472;2022-12-24T03:12:40;10.13;;;1.50;;
6412;SDS011;3239;48.714;9.472;2022-12-24T03:15:12;8.00;;;2.10;;
6412;SDS011;3239;48.714;9.472;2022-12-24T03:17:42;6.93;;;1.67;;
6412;SDS011;3239;48.714;9.472;2022-12-24T03:20:14;3.47;;;1.37;;
6412;SDS011;3239;48.714;9.472;2022-12-24T03:22:50;5.87;;;1.40;;
6412;SDS011;3239;48.714;9.472;2022-12-24T03:25:16;4.80;;;1.60;;
6412;SDS011;3239;48.714;9.472;2022-12-24T03:27:44;8.60;;;1.63;;
6412;SDS011;3239;48.714;9.472;2022-12-24T03:30:12;7.37;;;1.70;;
6412;SDS011;3239;48.714;9.472;2022-12-24T03:32:39;6.00;;;1.80;;
6412;SDS011;3239;48.714;9.472;2022-12-24T03:35:06;6.40;;;1.90;;
6412;SDS011;3239;48.714;9.472;2022-12-24T03:37:32;7.87;;;1.70;;
6412;SDS011;3239;48.714;9.472;2022-12-24T03:39:58;4.23;;;1.30;;
6412;SDS011;3239;48.714;9.472;2022-12-24T03:42:24;9.80;;;1.63;;
6412;SDS011;3239;48.714;9.472;2022-12-24T03:44:49;6.83;;;1.30;;
6412;SDS011;3239;48.714;9.472;2022-12-24T03:47:15;5.03;;;1.50;;
6412;SDS011;3239;48.714;9.472;2022-12-24T03:49:41;10.67;;;1.43;;
6412;SDS011;3239;48.714;9.472;2022-12-24T03:52:07;7.10;;;1.50;;
6412;SDS011;3239;48.714;9.472;2022-12-24T03:54:32;6.83;;;1.60;;
6412;SDS011;3239;48.714;9.472;2022-12-24T03:56:58;6.20;;;1.47;;
6412;SDS011;3239;48.714;9.472;2022-12-24T03:59:24;6.80;;;1.60;;
6412;SDS011;3239;48.714;9.472;2022-12-24T04:01:51;7.27;;;2.20;;
6412;SDS011;3239;48.714;9.472;2022-12-24T04:04:17;7.90;;;1.70;;
6412;SDS011;3239;48.714;9.472;2022-12-24T04:06:43;11.30;;;2.17;;
6412;SDS011;3239;48.714;9.472;2022-12-24T04:09:08;9.57;;;1.80;;
6412;SDS011;3239;48.714;9.472;2022-12-24T04:11:34;4.93;;;2.30;;
6412;SDS011;3239;48.714;9.472;2022-12-24T04:14:00;6.50;;;1.50;;
6412;SDS011;3239;48.714;9.472;2022-12-24T04:16:25;6.30;;;2.70;;
6412;SDS011;3239;48.714;9.472;2022-12-24T04:18:51;7.53;;;2.50;;
6412;SDS011;3239;48.714;9.472;2022-12-24T04:21:17;9.43;;;2.00;;
6412;SDS011;3239;48.714;9.472;2022-12-24T04:23:43;5.80;;;1.47;;
6412;SDS011;3239;48.714;9.472;2022-12-24T04:26:10;4.80;;;1.83;;
6412;SDS011;3239;48.714;9.472;2022-12-24T04:28:37;5.10;;;1.23;;
6412;SDS011;3239;48.714;9.472;2022-12-24T04:31:05;6.90;;;1.87;;
6412;SDS011;3239;48.714;9.472;2022-12-24T04:33:35;6.30;;;1.37;;
6412;SDS011;3239;48.714;9.472;2022-12-24T04:36:01;11.10;;;2.10;;
6412;SDS011;3239;48.714;9.472;2022-12-24T04:38:30;6.80;;;1.70;;
6412;SDS011;3239;48.714;9.472;2022-12-24T04:41:06;11.43;;;1.90;;
6412;SDS011;3239;48.714;9.472;2022-12-24T04:43:36;6.60;;;1.90;;
6412;SDS011;3239;48.714;9.472;2022-12-24T04:46:06;4.87;;;1.60;;
6412;SDS011;3239;48.714;9.472;2022-12-24T04:48:38;5.87;;;1.70;;
6412;SDS011;3239;48.714;9.472;2022-12-24T04:51:05;11.63;;;1.63;;
6412;SDS011;3239;48.714;9.472;2022-12-24T04:53:32;6.17;;;1.63;;
6412;SDS011;3239;48.714;9.472;2022-12-24T04:55:58;5.17;;;1.57;;
6412;SDS011;3239;48.714;9.472;2022-12-24T04:58:25;9.73;;;1.40;;
6412;SDS011;3239;48.714;9.472;2022-12-24T05:00:51;6.77;;;1.23;;
6412;SDS011;3239;48.714;9.472;2022-12-24T05:03:17;19.47;;;2.03;;
6412;SDS011;3239;48.714;9.472;2022-12-24T05:05:43;3.53;;;1.60;;
6412;SDS011;3239;48.714;9.472;2022-12-24T05:08:09;5.70;;;1.37;;
6412;SDS011;3239;48.714;9.472;2022-12-24T05:10:35;4.90;;;1.70;;
6412;SDS011;3239;48.714;9.472;2022-12-24T05:13:01;8.13;;;1.53;;
6412;SDS011;3239;48.714;9.472;2022-12-24T05:15:27;7.70;;;1.80;;
6412;SDS011;3239;48.714;9.472;2022-12-24T05:17:53;10.60;;;1.53;;
6412;SDS011;3239;48.714;9.472;2022-12-24T05:20:19;6.30;;;1.57;;
6412;SDS011;3239;48.714;9.472;2022-12-24T05:22:45;5.20;;;1.63;;
6412;SDS011;3239;48.714;9.472;2022-12-24T05:25:33;6.73;;;1.53;;
6412;SDS011;3239;48.714;9.472;2022-12-24T05:28:22;7.83;;;1.50;;
6412;SDS011;3239;48.714;9.472;2022-12-24T05:30:48;9.87;;;1.33;;
6412;SDS011;3239;48.714;9.472;2022-12-24T05:33:14;4.83;;;1.60;;
6412;SDS011;3239;48.714;9.472;2022-12-24T05:35:41;13.47;;;5.40;;
6412;SDS011;3239;48.714;9.472;2022-12-24T05:38:06;7.83;;;1.97;;
6412;SDS011;3239;48.714;9.472;2022-12-24T05:40:32;8.17;;;1.70;;
6412;SDS011;3239;48.714;9.472;2022-12-24T05:42:58;6.40;;;1.80;;
6412;SDS011;3239;48.714;9.472;2022-12-24T05:45:23;7.80;;;2.03;;
6412;SDS011;3239;48.714;9.472;2022-12-24T05:47:49;8.13;;;2.13;;
6412;SDS011;3239;48.714;9.472;2022-12-24T05:50:15;6.73;;;2.00;;
6412;SDS011;3239;48.714;9.472;2022-12-24T05:52:41;5.33;;;1.33;;
6412;SDS011;3239;48.714;9.472;2022-12-24T05:55:06;7.40;;;1.70;;
6412;SDS011;3239;48.714;9.472;2022-12-24T05:57:33;9.60;;;1.73;;
6412;SDS011;3239;48.714;9.472;2022-12-24T05:59:58;6.07;;;1.57;;
6412;SDS011;3239;48.714;9.472;2022-12-24T06:02:24;4.77;;;0.93;;
6412;SDS011;3239;48.714;9.472;2022-12-24T06:04:50;5.80;;;2.50;;
6412;SDS011;3239;48.714;9.472;2022-12-24T06:07:16;6.17;;;2.03;;
6412;SDS011;3239;48.714;9.472;2022-12-24T06:09:41;8.10;;;2.07;;
6412;SDS011;3239;48.714;9.472;2022-12-24T06:12:07;6.70;;;1.73;;
6412;SDS011;3239;48.714;9.472;2022-12-24T06:14:33;5.90;;;1.30;;
6412;SDS011;3239;48.714;9.472;2022-12-24T06:16:58;5.70;;;1.50;;
6412;SDS011;3239;48.714;9.472;2022-12-24T06:19:24;7.30;;;1.67;;
6412;SDS011;3239;48.714;9.472;2022-12-24T06:21:50;4.77;;;1.20;;
6412;SDS011;3239;48.714;9.472;2022-12-24T06:24:16;5.17;;;1.43;;
6412;SDS011;3239;48.714;9.472;2022-12-24T06:26:41;4.83;;;1.57;;
6412;SDS011;3239;48.714;9.472;2022-12-24T06:29:07;4.60;;;1.37;;
6412;SDS011;3239;48.714;9.472;2022-12-24T06:31:33;4.20;;;1.40;;
6412;SDS011;3239;48.714;9.472;2022-12-24T06:33:58;7.03;;;1.50;;
6412;SDS011;3239;48.714;9.472;2022-12-24T06:36:24;4.70;;;1.60;;
6412;SDS011;3239;48.714;9.472;2022-12-24T06:38:51;8.87;;;1.47;;
6412;SDS011;3239;48.714;9.472;2022-12-24T06:41:18;10.60;;;1.90;;
6412;SDS011;3239;48.714;9.472;2022-12-24T06:43:45;8.80;;;1.90;;
6412;SDS011;3239;48.714;9.472;2022-12-24T06:46:14;7.07;;;1.27;;
6412;SDS011;3239;48.714;9.472;2022-12-24T06:48:41;6.23;;;1.50;;
6412;SDS011;3239;48.714;9.472;2022-12-24T06:51:08;7.23;;;1.33;;
6412;SDS011;3239;48.714;9.472;2022-12-24T06:53:34;4.97;;;1.30;;
6412;SDS011;3239;48.714;9.472;2022-12-24T06:56:04;4.43;;;1.50;;
6412;SDS011;3239;48.714;9.472;2022-12-24T06:58:32;5.23;;;1.43;;
6412;SDS011;3239;48.714;9.472;2022-12-24T07:01:02;12.80;;;2.53;;
6412;SDS011;3239;48.714;9.472;2022-12-24T07:03:31;2.63;;;1.00;;
6412;SDS011;3239;48.714;9.472;2022-12-24T07:05:57;5.47;;;1.40;;
6412;SDS011;3239;48.714;9.472;2022-12-24T07:08:23;3.10;;;1.30;;
6412;SDS011;3239;48.714;9.472;2022-12-24T07:10:49;4.00;;;1.40;;
6412;SDS011;3239;48.714;9.472;2022-12-24T07:13:16;7.70;;;1.80;;
6412;SDS011;3239;48.714;9.472;2022-12-24T07:15:42;15.50;;;1.83;;
6412;SDS011;3239;48.714;9.472;2022-12-24T07:18:09;10.17;;;1.73;;
6412;SDS011;3239;48.714;9.472;2022-12-24T07:20:36;5.37;;;1.80;;
6412;SDS011;3239;48.714;9.472;2022-12-24T07:23:03;5.33;;;1.73;;
6412;SDS011;3239;48.714;9.472;2022-12-24T07:25:29;4.43;;;1.20;;
6412;SDS011;3239;48.714;9.472;2022-12-24T07:27:54;7.20;;;2.00;;
6412;SDS011;3239;48.714;9.472;2022-12-24T07:30:20;6.77;;;1.77;;
6412;SDS011;3239;48.714;9.472;2022-12-24T07:32:46;8.73;;;2.43;;
6412;SDS011;3239;48.714;9.472;2022-12-24T07:35:12;7.70;;;2.13;;
6412;SDS011;3239;48.714;9.472;2022-12-24T07:37:37;8.43;;;3.23;;
6412;SDS011;3239;48.714;9.472;2022-12-24T07:40:03;8.50;;;2.57;;
6412;SDS011;3239;48.714;9.472;2022-12-24T07:42:32;5.70;;;2.80;;
6412;SDS011;3239;48.714;9.472;2022-12-24T07:44:58;12.20;;;3.90;;
6412;SDS011;3239;48.714;9.472;2022-12-24T07:47:23;9.67;;;3.07;;
6412;SDS011;3239;48.714;9.472;2022-12-24T07:49:49;9.30;;;2.80;;
6412;SDS011;3239;48.714;9.472;2022-12-24T07:52:15;7.30;;;2.57;;
6412;SDS011;3239;48.714;9.472;2022-12-24T07:54:41;7.00;;;2.40;;
6412;SDS011;3239;48.714;9.472;2022-12-24T07:57:07;13.20;;;4.00;;
6412;SDS011;3239;48.714;9.472;2022-12-24T07:59:32;13.40;;;5.03;;
6412;SDS011;3239;48.714;9.472;2022-12-24T08:01:58;27.50;;;9.00;;
6412;SDS011;3239;48.714;9.472;2022-12-24T08:04:24;14.77;;;4.23;;
6412;SDS011;3239;48.714;9.472;2022-12-24T08:06:50;12.03;;;3.80;;
6412;SDS011;3239;48.714;9.472;2022-12-24T08:09:15;9.50;;;4.30;;
6412;SDS011;3239;48.714;9.472;2022-12-24T08:11:41;9.67;;;3.97;;
6412;SDS011;3239;48.714;9.472;2022-12-24T08:14:07;9.93;;;4.00;;
6412;SDS011;3239;48.714;9.472;2022-12-24T08:16:32;12.63;;;3.10;;
6412;SDS011;3239;48.714;9.472;2022-12-24T08:18:58;5.20;;;1.90;;
6412;SDS011;3239;48.714;9.472;2022-12-24T08:21:24;6.23;;;2.20;;
6412;SDS011;3239;48.714;9.472;2022-12-24T08:23:49;4.00;;;1.83;;
6412;SDS011;3239;48.714;9.472;2022-12-24T08:26:15;5.63;;;1.60;;
6412;SDS011;3239;48.714;9.472;2022-12-24T08:28:41;4.53;;;1.63;;
6412;SDS011;3239;48.714;9.472;2022-12-24T08:31:07;9.00;;;2.30;;
6412;SDS011;3239;48.714;9.472;2022-12-24T08:33:33;10.33;;;2.10;;
6412;SDS011;3239;48.714;9.472;2022-12-24T08:35:59;5.43;;;2.03;;
6412;SDS011;3239;48.714;9.472;2022-12-24T08:38:26;7.93;;;1.80;;
6412;SDS011;3239;48.714;9.472;2022-12-24T08:40:52;11.83;;;1.97;;
6412;SDS011;3239;48.714;9.472;2022-12-24T08:43:19;11.07;;;2.20;;
6412;SDS011;3239;48.714;9.472;2022-12-24T08:45:45;7.73;;;1.87;;
6412;SDS011;3239;48.714;9.472;2022-12-24T08:48:15;7.87;;;2.03;;
6412;SDS011;3239;48.714;9.472;2022-12-24T08:50:41;6.63;;;2.53;;
6412;SDS011;3239;48.714;9.472;2022-12-24T08:53:08;7.33;;;2.77;;
6412;SDS011;3239;48.714;9.472;2022-12-24T08:55:35;9.10;;;2.13;;
6412;SDS011;3239;48.714;9.472;2022-12-24T08:58:01;9.30;;;2.60;;
6412;SDS011;3239;48.714;9.472;2022-12-24T09:00:27;6.57;;;2.20;;
6412;SDS011;3239;48.714;9.472;2022-12-24T09:02:55;7.27;;;2.03;;
6412;SDS011;3239;48.714;9.472;2022-12-24T09:05:21;5.47;;;2.20;;
6412;SDS011;3239;48.714;9.472;2022-12-24T09:07:47;8.73;;;2.20;;
6412;SDS011;3239;48.714;9.472;2022-12-24T09:10:13;7.83;;;2.20;;
6412;SDS011;3239;48.714;9.472;2022-12-24T09:12:38;12.27;;;2.50;;
6412;SDS011;3239;48.714;9.472;2022-12-24T09:15:04;4.20;;;1.83;;
6412;SDS011;3239;48.714;9.472;2022-12-24T09:17:32;3.83;;;1.73;;
6412;SDS011;3239;48.714;9.472;2022-12-24T09:19:59;10.40;;;1.90;;
6412;SDS011;3239;48.714;9.472;2022-12-24T09:22:24;7.43;;;2.60;;
6412;SDS011;3239;48.714;9.472;2022-12-24T09:24:52;14.73;;;3.33;;
6412;SDS011;3239;48.714;9.472;2022-12-24T09:27:18;5.23;;;1.97;;
6412;SDS011;3239;48.714;9.472;2022-12-24T09:29:44;5.00;;;1.73;;
6412;SDS011;3239;48.714;9.472;2022-12-24T09:32:09;8.07;;;2.20;;
6412;SDS011;3239;48.714;9.472;2022-12-24T09:34:35;7.03;;;2.13;;
6412;SDS011;3239;48.714;9.472;2022-12-24T09:37:01;9.37;;;2.07;;
6412;SDS011;3239;48.714;9.472;2022-12-24T09:39:27;9.50;;;2.33;;
6412;SDS011;3239;48.714;9.472;2022-12-24T09:44:44;8.30;;;2.30;;
6412;SDS011;3239;48.714;9.472;2022-12-24T09:47:27;7.00;;;2.83;;
6412;SDS011;3239;48.714;9.472;2022-12-24T09:50:45;6.97;;;2.20;;
6412;SDS011;3239;48.714;9.472;2022-12-24T09:56:16;12.53;;;2.20;;
6412;SDS011;3239;48.714;9.472;2022-12-24T09:58:47;6.97;;;2.03;;
6412;SDS011;3239;48.714;9.472;2022-12-24T10:01:18;8.20;;;2.00;;
6412;SDS011;3239;48.714;9.472;2022-12-24T10:03:44;11.13;;;2.37;;
6412;SDS011;3239;48.714;9.472;2022-12-24T10:06:15;10.87;;;2.20;;
6412;SDS011;3239;48.714;9.472;2022-12-24T10:08:56;6.07;;;2.10;;
6412;SDS011;3239;48.714;9.472;2022-12-24T10:11:50;7.30;;;2.60;;
6412;SDS011;3239;48.714;9.472;2022-12-24T10:20:01;8.63;;;3.03;;
6412;SDS011;3239;48.714;9.472;2022-12-24T10:23:14;5.27;;;2.57;;
6412;SDS011;3239;48.714;9.472;2022-12-24T10:28:57;11.70;;;2.30;;
6412;SDS011;3239;48.714;9.472;2022-12-24T10:31:35;6.17;;;2.53;;
6412;SDS011;3239;48.714;9.472;2022-12-24T10:34:18;7.50;;;2.60;;
6412;SDS011;3239;48.714;9.472;2022-12-24T10:36:48;6.10;;;2.83;;
6412;SDS011;3239;48.714;9.472;2022-12-24T10:39:16;7.90;;;2.90;;
6412;SDS011;3239;48.714;9.472;2022-12-24T10:41:47;5.93;;;2.30;;
6412;SDS011;3239;48.714;9.472;2022-12-24T10:44:18;8.10;;;2.20;;
6412;SDS011;3239;48.714;9.472;2022-12-24T10:46:48;8.80;;;2.93;;
6412;SDS011;3239;48.714;9.472;2022-12-24T10:49:18;11.43;;;2.70;;
6412;SDS011;3239;48.714;9.472;2022-12-24T10:52:21;8.40;;;2.97;;
6412;SDS011;3239;48.714;9.472;2022-12-24T10:58:01;9.70;;;2.70;;
6412;SDS011;3239;48.714;9.472;2022-12-24T11:00:31;13.57;;;3.00;;
6412;SDS011;3239;48.714;9.472;2022-12-24T11:08:30;11.13;;;2.40;;
6412;SDS011;3239;48.714;9.472;2022-12-24T11:13:42;7.20;;;2.83;;
6412;SDS011;3239;48.714;9.472;2022-12-24T11:18:47;10.73;;;2.90;;
6412;SDS011;3239;48.714;9.472;2022-12-24T11:21:21;9.80;;;2.67;;
6412;SDS011;3239;48.714;9.472;2022-12-24T11:23:55;12.57;;;2.57;;
6412;SDS011;3239;48.714;9.472;2022-12-24T11:26:37;7.00;;;2.63;;
6412;SDS011;3239;48.714;9.472;2022-12-24T11:31:49;8.53;;;2.60;;
6412;SDS011;3239;48.714;9.472;2022-12-24T11:34:24;5.70;;;2.10;;
6412;SDS011;3239;48.714;9.472;2022-12-24T11:36:56;7.97;;;2.20;;
6412;SDS011;3239;48.714;9.472;2022-12-24T11:39:40;8.20;;;2.50;;
6412;SDS011;3239;48.714;9.472;2022-12-24T11:45:24;8.23;;;2.47;;
6412;SDS011;3239;48.714;9.472;2022-12-24T11:47:53;12.10;;;3.40;;
6412;SDS011;3239;48.714;9.472;2022-12-24T11:50:33;8.77;;;2.60;;
6412;SDS011;3239;48.714;9.472;2022-12-24T11:55:47;13.93;;;4.27;;
6412;SDS011;3239;48.714;9.472;2022-12-24T11:58:40;6.60;;;2.00;;
6412;SDS011;3239;48.714;9.472;2022-12-24T12:03:48;10.67;;;2.33;;
6412;SDS011;3239;48.714;9.472;2022-12-24T12:07:05;8.07;;;2.40;;
6412;SDS011;3239;48.714;9.472;2022-12-24T12:09:30;7.20;;;2.33;;
6412;SDS011;3239;48.714;9.472;2022-12-24T12:12:07;5.37;;;2.07;;
6412;SDS011;3239;48.714;9.472;2022-12-24T12:15:00;7.33;;;2.27;;
6412;SDS011;3239;48.714;9.472;2022-12-24T12:17:45;6.63;;;2.43;;
6412;SDS011;3239;48.714;9.472;2022-12-24T12:20:34;8.20;;;2.33;;
6412;SDS011;3239;48.714;9.472;2022-12-24T12:23:10;6.80;;;2.00;;
6412;SDS011;3239;48.714;9.472;2022-12-24T12:31:25;6.47;;;2.40;;
6412;SDS011;3239;48.714;9.472;2022-12-24T12:34:13;4.80;;;2.00;;
6412;SDS011;3239;48.714;9.472;2022-12-24T12:37:21;6.70;;;1.80;;
6412;SDS011;3239;48.714;9.472;2022-12-24T12:39:58;7.33;;;2.40;;
6412;SDS011;3239;48.714;9.472;2022-12-24T12:42:32;6.63;;;2.03;;
6412;SDS011;3239;48.714;9.472;2022-12-24T12:50:57;8.73;;;2.20;;
6412;SDS011;3239;48.714;9.472;2022-12-24T12:54:08;5.73;;;2.30;;
6412;SDS011;3239;48.714;9.472;2022-12-24T12:57:09;6.97;;;2.27;;
6412;SDS011;3239;48.714;9.472;2022-12-24T12:59:41;7.03;;;2.10;;
6412;SDS011;3239;48.714;9.472;2022-12-24T13:05:48;5.77;;;2.37;;
6412;SDS011;3239;48.714;9.472;2022-12-24T13:08:58;7.43;;;2.10;;
6412;SDS011;3239;48.714;9.472;2022-12-24T13:20:41;9.60;;;4.03;;
6412;SDS011;3239;48.714;9.472;2022-12-24T13:23:14;9.90;;;3.00;;
6412;SDS011;3239;48.714;9.472;2022-12-24T13:25:51;10.80;;;2.70;;
6412;SDS011;3239;48.714;9.472;2022-12-24T13:36:21;11.23;;;2.67;;
6412;SDS011;3239;48.714;9.472;2022-12-24T13:38:48;6.40;;;2.13;;
6412;SDS011;3239;48.714;9.472;2022-12-24T13:55:22;9.90;;;2.90;;
6412;SDS011;3239;48.714;9.472;2022-12-24T13:57:28;10.33;;;2.77;;
6412;SDS011;3239;48.714;9.472;2022-12-24T14:02:47;11.43;;;2.70;;
6412;SDS011;3239;48.714;9.472;2022-12-24T14:08:12;6.87;;;2.43;;
6412;SDS011;3239;48.714;9.472;2022-12-24T14:18:49;9.50;;;3.03;;
6412;SDS011;3239;48.714;9.472;2022-12-24T14:21:51;11.80;;;3.03;;
6412;SDS011;3239;48.714;9.472;2022-12-24T14:24:44;11.83;;;2.97;;
6412;SDS011;3239;48.714;9.472;2022-12-24T14:30:15;11.50;;;2.30;;
6412;SDS011;3239;48.714;9.472;2022-12-24T14:32:50;10.03;;;3.23;;
6412;SDS011;3239;48.714;9.472;2022-12-24T14:35:22;8.13;;;2.50;;
6412;SDS011;3239;48.714;9.472;2022-12-24T14:37:59;7.03;;;2.60;;
6412;SDS011;3239;48.714;9.472;2022-12-24T14:41:30;13.90;;;2.80;;
6412;SDS011;3239;48.714;9.472;2022-12-24T14:47:00;10.33;;;3.67;;
6412;SDS011;3239;48.714;9.472;2022-12-24T14:55:34;8.23;;;2.87;;
6412;SDS011;3239;48.714;9.472;2022-12-24T15:00:49;8.80;;;3.00;;
6412;SDS011;3239;48.714;9.472;2022-12-24T15:03:18;8.90;;;3.20;;
6412;SDS011;3239;48.714;9.472;2022-12-24T15:05:50;7.27;;;2.37;;
6412;SDS011;3239;48.714;9.472;2022-12-24T15:11:02;8.50;;;2.53;;
6412;SDS011;3239;48.714;9.472;2022-12-24T15:13:40;6.67;;;1.80;;
6412;SDS011;3239;48.714;9.472;2022-12-24T15:16:10;19.10;;;2.83;;
6412;SDS011;3239;48.714;9.472;2022-12-24T15:18:52;6.57;;;2.23;;
6412;SDS011;3239;48.714;9.472;2022-12-24T15:21:27;9.43;;;1.77;;
6412;SDS011;3239;48.714;9.472;2022-12-24T15:24:05;5.87;;;2.30;;
6412;SDS011;3239;48.714;9.472;2022-12-24T15:26:50;11.20;;;2.30;;
6412;SDS011;3239;48.714;9.472;2022-12-24T15:29:19;15.83;;;6.60;;
6412;SDS011;3239;48.714;9.472;2022-12-24T15:31:52;13.10;;;5.30;;
6412;SDS011;3239;48.714;9.472;2022-12-24T15:34:29;40.37;;;19.93;;
6412;SDS011;3239;48.714;9.472;2022-12-24T15:39:56;14.00;;;5.50;;
6412;SDS011;3239;48.714;9.472;2022-12-24T15:42:44;10.47;;;3.77;;
6412;SDS011;3239;48.714;9.472;2022-12-24T15:45:15;15.67;;;3.63;;
6412;SDS011;3239;48.714;9.472;2022-12-24T15:47:55;7.27;;;3.50;;
6412;SDS011;3239;48.714;9.472;2022-12-24T15:50:35;9.37;;;3.03;;
6412;SDS011;3239;48.714;9.472;2022-12-24T15:53:13;14.17;;;3.90;;
6412;SDS011;3239;48.714;9.472;2022-12-24T15:56:35;10.37;;;3.83;;
6412;SDS011;3239;48.714;9.472;2022-12-24T16:08:00;13.53;;;5.00;;
6412;SDS011;3239;48.714;9.472;2022-12-24T16:13:28;16.27;;;5.77;;
6412;SDS011;3239;48.714;9.472;2022-12-24T16:19:13;14.70;;;5.73;;
6412;SDS011;3239;48.714;9.472;2022-12-24T16:21:27;17.17;;;6.83;;
6412;SDS011;3239;48.714;9.472;2022-12-24T16:24:02;20.30;;;6.10;;
6412;SDS011;3239;48.714;9.472;2022-12-24T16:26:49;12.93;;;5.80;;
6412;SDS011;3239;48.714;9.472;2022-12-24T16:29:16;18.53;;;6.80;;
6412;SDS011;3239;48.714;9.472;2022-12-24T16:34:19;18.60;;;8.43;;
6412;SDS011;3239;48.714;9.472;2022-12-24T16:36:50;12.20;;;6.00;;
6412;SDS011;3239;48.714;9.472;2022-12-24T16:39:19;12.67;;;6.07;;
6412;SDS011;3239;48.714;9.472;2022-12-24T16:41:49;15.87;;;5.70;;
6412;SDS011;3239;48.714;9.472;2022-12-24T16:44:39;14.00;;;5.60;;
6412;SDS011;3239;48.714;9.472;2022-12-24T16:47:06;13.40;;;5.13;;
6412;SDS011;3239;48.714;9.472;2022-12-24T16:49:41;16.30;;;4.83;;
6412;SDS011;3239;48.714;9.472;2022-12-24T16:52:16;13.93;;;5.37;;
6412;SDS011;3239;48.714;9.472;2022-12-24T16:54:50;21.13;;;5.77;;
6412;SDS011;3239;48.714;9.472;2022-12-24T16:57:16;16.70;;;5.23;;
6412;SDS011;3239;48.714;9.472;2022-12-24T16:59:43;19.73;;;7.07;;
6412;SDS011;3239;48.714;9.472;2022-12-24T17:02:13;10.93;;;4.90;;
6412;SDS011;3239;48.714;9.472;2022-12-24T17:04:41;18.10;;;5.63;;
6412;SDS011;3239;48.714;9.472;2022-12-24T17:07:08;27.00;;;7.70;;
6412;SDS011;3239;48.714;9.472;2022-12-24T17:09:36;11.30;;;6.30;;
6412;SDS011;3239;48.714;9.472;2022-12-24T17:12:02;17.63;;;7.07;;
6412;SDS011;3239;48.714;9.472;2022-12-24T17:14:28;16.50;;;9.27;;
6412;SDS011;3239;48.714;9.472;2022-12-24T17:16:54;14.20;;;6.80;;
6412;SDS011;3239;48.714;9.472;2022-12-24T17:19:19;14.80;;;7.83;;
6412;SDS011;3239;48.714;9.472;2022-12-24T17:21:45;15.87;;;7.10;;
6412;SDS011;3239;48.714;9.472;2022-12-24T17:24:11;12.30;;;6.77;;
6412;SDS011;3239;48.714;9.472;2022-12-24T17:26:38;14.70;;;6.57;;
6412;SDS011;3239;48.714;9.472;2022-12-24T17:29:04;19.60;;;6.87;;
6412;SDS011;3239;48.714;9.472;2022-12-24T17:31:30;18.33;;;6.83;;
6412;SDS011;3239;48.714;9.472;2022-12-24T17:33:57;9.63;;;4.80;;
6412;SDS011;3239;48.714;9.472;2022-12-24T17:36:23;10.23;;;4.70;;
6412;SDS011;3239;48.714;9.472;2022-12-24T17:38:49;11.30;;;4.43;;
6412;SDS011;3239;48.714;9.472;2022-12-24T17:41:17;9.23;;;5.13;;
6412;SDS011;3239;48.714;9.472;2022-12-24T17:43:44;13.73;;;4.60;;
6412;SDS011;3239;48.714;9.472;2022-12-24T17:46:12;12.53;;;5.70;;
6412;SDS011;3239;48.714;9.472;2022-12-24T17:48:41;17.97;;;9.13;;
6412;SDS011;3239;48.714;9.472;2022-12-24T17:51:09;16.77;;;8.80;;
6412;SDS011;3239;48.714;9.472;2022-12-24T17:53:37;15.13;;;7.80;;
6412;SDS011;3239;48.714;9.472;2022-12-24T17:56:05;20.53;;;9.33;;
6412;SDS011;3239;48.714;9.472;2022-12-24T17:58:34;40.63;;;23.07;;
6412;SDS011;3239;48.714;9.472;2022-12-24T18:01:00;23.93;;;13.20;;
6412;SDS011;3239;48.714;9.472;2022-12-24T18:03:27;17.17;;;6.90;;
6412;SDS011;3239;48.714;9.472;2022-12-24T18:05:53;16.77;;;7.03;;
6412;SDS011;3239;48.714;9.472;2022-12-24T18:08:19;17.93;;;6.40;;
6412;SDS011;3239;48.714;9.472;2022-12-24T18:10:45;14.50;;;5.70;;
6412;SDS011;3239;48.714;9.472;2022-12-24T18:13:11;14.10;;;5.80;;
6412;SDS011;3239;48.714;9.472;2022-12-24T18:15:38;12.73;;;7.00;;